CMB859 Details

Departure: Ambouli International Airport (HDAM)
Arrival: Bahrain International Airport (OBBI)
Route: TORBA2E TORBA B535 KRA UM651 NADKI M318 DEGPA UT100 KUTNA UL564 BAT UL564 DOH VEDED P699 SOGAT
Notes: USTRANSCOM CONTRACT FLIGHT


Current Weather Information
HDAM 200900Z 08011KT 9/9 FEW023 31/23 Q1012
OBBI 200900Z 32012KT CAVOK 22/09 Q1015 NOSIG